createdAt,value
2018-07-02T00:00:08.296Z,11.59
2018-07-02T00:01:07.968Z,11.64
2018-07-02T00:02:07.966Z,11.53
2018-07-02T00:03:08.288Z,11.60
2018-07-02T00:04:07.893Z,11.53
2018-07-02T00:05:08.737Z,11.43
2018-07-02T00:06:07.834Z,11.42
2018-07-02T00:07:08.740Z,11.38
2018-07-02T00:08:07.818Z,11.34
2018-07-02T00:09:07.758Z,11.21
2018-07-02T00:10:08.234Z,11.20
2018-07-02T00:11:07.737Z,11.16
2018-07-02T00:12:07.660Z,11.16
2018-07-02T00:13:07.632Z,11.20
2018-07-02T00:14:08.247Z,11.12
2018-07-02T00:15:07.572Z,11.10
2018-07-02T00:16:07.598Z,10.98
2018-07-02T00:17:08.237Z,10.95
2018-07-02T00:18:07.490Z,11.00
2018-07-02T00:19:07.461Z,10.97
2018-07-02T00:20:08.236Z,11.03
2018-07-02T00:21:07.446Z,11.00
2018-07-02T00:22:07.373Z,11.12
2018-07-02T00:23:08.241Z,11.16
2018-07-02T00:24:07.313Z,11.24
2018-07-02T00:25:07.326Z,11.24
2018-07-02T00:26:07.306Z,11.31
2018-07-02T00:27:07.300Z,11.33
2018-07-02T00:28:07.204Z,11.34
2018-07-02T00:29:07.178Z,11.33
2018-07-02T00:30:07.146Z,11.31
2018-07-02T00:31:07.114Z,11.35
2018-07-02T00:32:07.150Z,11.35
2018-07-02T00:33:07.056Z,11.27
2018-07-02T00:34:07.037Z,11.33
2018-07-02T00:35:07.011Z,11.30
2018-07-02T00:36:07.740Z,11.20
2018-07-02T00:37:06.988Z,11.21
2018-07-02T00:38:06.913Z,11.16
2018-07-02T00:39:06.888Z,11.10
2018-07-02T00:40:06.860Z,11.21
2018-07-02T00:41:07.736Z,11.16
2018-07-02T00:42:06.853Z,11.20
2018-07-02T00:43:06.777Z,11.30
2018-07-02T00:44:07.242Z,11.28
2018-07-02T00:45:06.715Z,11.38
2018-07-02T00:46:06.682Z,11.34
2018-07-02T00:47:06.807Z,11.35
2018-07-02T00:48:06.632Z,11.41
2018-07-02T00:49:06.601Z,11.41
2018-07-02T00:50:06.575Z,11.39
2018-07-02T00:51:06.536Z,11.33
2018-07-02T00:52:06.562Z,11.33
2018-07-02T00:53:07.246Z,11.34
2018-07-02T00:54:06.452Z,11.34
2018-07-02T00:55:06.431Z,11.34
2018-07-02T00:56:07.241Z,11.27
2018-07-02T00:57:06.411Z,11.26
2018-07-02T00:58:06.340Z,11.26
2018-07-02T00:59:07.242Z,11.34
2018-07-02T01:00:06.315Z,11.41
2018-07-02T01:01:06.252Z,11.28
2018-07-02T01:02:06.744Z,11.31
2018-07-02T01:03:06.237Z,11.35
2018-07-02T01:04:06.173Z,11.33
2018-07-02T01:05:06.460Z,11.33
2018-07-02T01:06:06.105Z,11.31
2018-07-02T01:07:06.080Z,11.28
2018-07-02T01:08:06.058Z,11.21
2018-07-02T01:09:06.742Z,11.24
2018-07-02T01:10:06.036Z,11.23
2018-07-02T01:11:05.964Z,11.30
2018-07-02T01:12:06.768Z,11.23
2018-07-02T01:13:05.903Z,11.26
2018-07-02T01:14:05.951Z,11.13
2018-07-02T01:15:05.845Z,11.24
2018-07-02T01:16:05.815Z,11.15
2018-07-02T01:17:06.750Z,11.18
2018-07-02T01:18:05.757Z,11.21
2018-07-02T01:19:05.832Z,11.02
2018-07-02T01:20:05.724Z,11.10
2018-07-02T01:21:05.667Z,11.03
2018-07-02T01:22:05.645Z,11.03
2018-07-02T01:23:05.611Z,10.97
2018-07-02T01:24:05.626Z,11.03
2018-07-02T01:25:05.593Z,11.02
2018-07-02T01:26:05.697Z,11.00
2018-07-02T01:27:05.494Z,11.02
2018-07-02T01:28:05.492Z,11.06
2018-07-02T01:29:05.444Z,10.95
2018-07-02T01:30:05.450Z,10.94
2018-07-02T01:31:05.384Z,11.00
2018-07-02T01:32:05.357Z,10.94
2018-07-02T01:33:06.243Z,10.94
2018-07-02T01:34:05.294Z,10.98
2018-07-02T01:35:05.349Z,10.87
2018-07-02T01:36:05.236Z,10.92
2018-07-02T01:37:05.205Z,10.88
2018-07-02T01:38:05.176Z,10.92
2018-07-02T01:39:05.153Z,10.84
2018-07-02T01:40:05.161Z,10.84
2018-07-02T01:41:05.169Z,10.79
2018-07-02T01:42:05.067Z,10.73
2018-07-02T01:43:05.030Z,10.61
2018-07-02T01:44:05.005Z,10.65
2018-07-02T01:45:05.750Z,10.51
2018-07-02T01:46:04.996Z,10.49
2018-07-02T01:47:04.914Z,10.42
2018-07-02T01:48:04.897Z,10.39
2018-07-02T01:49:05.746Z,10.38
2018-07-02T01:50:04.829Z,10.36
2018-07-02T01:51:04.841Z,10.18
2018-07-02T01:52:05.755Z,10.20
2018-07-02T01:53:04.737Z,10.17
2018-07-02T01:54:04.707Z,10.17
2018-07-02T01:55:05.257Z,10.03
2018-07-02T01:56:04.700Z,10.05
2018-07-02T01:57:04.627Z,9.92
2018-07-02T01:58:04.801Z,9.93
2018-07-02T01:59:04.570Z,9.84
2018-07-02T02:00:04.530Z,9.82
2018-07-02T02:01:04.505Z,9.84
2018-07-02T02:02:05.253Z,9.80
2018-07-02T02:03:04.495Z,9.66
2018-07-02T02:04:05.268Z,9.67
2018-07-02T02:05:04.388Z,9.71
2018-07-02T02:06:04.412Z,9.74
2018-07-02T02:07:05.251Z,9.63
2018-07-02T02:08:04.301Z,9.59
2018-07-02T02:09:04.316Z,9.53
2018-07-02T02:10:04.240Z,9.50
2018-07-02T02:11:04.304Z,9.50
2018-07-02T02:12:04.184Z,9.45
2018-07-02T02:13:04.151Z,9.37
2018-07-02T02:14:04.124Z,9.29
2018-07-02T02:15:04.139Z,9.42
2018-07-02T02:16:04.074Z,9.39
2018-07-02T02:17:04.748Z,9.44
2018-07-02T02:18:04.015Z,9.44
2018-07-02T02:19:03.972Z,9.48
2018-07-02T02:20:04.312Z,9.57
2018-07-02T02:21:03.914Z,9.48
2018-07-02T02:22:03.886Z,9.45
2018-07-02T02:23:04.747Z,9.55
2018-07-02T02:24:03.827Z,9.50
2018-07-02T02:25:03.850Z,9.53
2018-07-02T02:26:04.747Z,9.50
2018-07-02T02:27:03.740Z,9.52
2018-07-02T02:28:03.707Z,9.48
2018-07-02T02:29:04.250Z,9.47
2018-07-02T02:30:03.796Z,9.50
2018-07-02T02:31:03.631Z,9.48
2018-07-02T02:32:03.599Z,9.45
2018-07-02T02:33:03.561Z,9.38
2018-07-02T02:34:04.249Z,9.32
2018-07-02T02:35:03.556Z,9.30
2018-07-02T02:36:03.470Z,9.21
2018-07-02T02:37:03.446Z,9.37
2018-07-02T02:38:03.455Z,9.26
2018-07-02T02:39:04.251Z,9.29
2018-07-02T02:40:03.360Z,9.32
2018-07-02T02:41:03.337Z,9.32
2018-07-02T02:42:04.334Z,9.32
2018-07-02T02:43:03.314Z,9.38
2018-07-02T02:44:05.757Z,9.50
2018-07-02T02:45:03.210Z,9.57
2018-07-02T02:46:03.170Z,9.59
2018-07-02T02:47:03.150Z,9.59
2018-07-02T02:48:03.308Z,9.64
2018-07-02T02:49:03.082Z,9.59
2018-07-02T02:50:03.319Z,9.60
2018-07-02T02:51:03.036Z,9.72
2018-07-02T02:52:03.004Z,9.72
2018-07-02T02:53:02.965Z,9.80
2018-07-02T02:54:03.752Z,9.88
2018-07-02T02:55:02.960Z,9.82
2018-07-02T02:56:02.875Z,9.90
2018-07-02T02:57:02.846Z,9.89
2018-07-02T02:58:02.861Z,9.95
2018-07-02T02:59:02.829Z,9.95
2018-07-02T03:00:02.755Z,9.98
2018-07-02T03:01:02.738Z,9.99
2018-07-02T03:02:02.706Z,9.98
2018-07-02T03:03:02.668Z,9.98
2018-07-02T03:04:02.699Z,9.99
2018-07-02T03:05:03.253Z,10.00
2018-07-02T03:06:02.583Z,10.03
2018-07-02T03:07:02.549Z,9.92
2018-07-02T03:08:02.524Z,10.08
2018-07-02T03:09:02.813Z,10.10
2018-07-02T03:10:02.465Z,10.11
2018-07-02T03:11:02.430Z,10.07
2018-07-02T03:12:03.259Z,10.11
2018-07-02T03:13:02.430Z,10.11
2018-07-02T03:14:02.342Z,10.07
2018-07-02T03:15:02.314Z,10.14
2018-07-02T03:16:02.304Z,10.18
2018-07-02T03:17:02.256Z,10.14
2018-07-02T03:18:02.273Z,10.18
2018-07-02T03:19:02.191Z,10.17
2018-07-02T03:20:02.779Z,10.15
2018-07-02T03:21:02.137Z,10.20
2018-07-02T03:22:02.304Z,10.20
2018-07-02T03:23:02.080Z,10.29
2018-07-02T03:24:02.108Z,10.28
2018-07-02T03:25:02.014Z,10.20
2018-07-02T03:26:02.758Z,10.31
2018-07-02T03:27:02.010Z,10.32
2018-07-02T03:28:01.928Z,10.20
2018-07-02T03:29:02.763Z,10.29
2018-07-02T03:30:01.912Z,10.29
2018-07-02T03:31:01.843Z,10.39
2018-07-02T03:32:02.368Z,10.36
2018-07-02T03:33:01.792Z,10.31
2018-07-02T03:34:01.752Z,10.32
2018-07-02T03:35:01.722Z,10.26
2018-07-02T03:36:02.265Z,10.25
2018-07-02T03:37:01.714Z,10.32
2018-07-02T03:38:02.256Z,10.44
2018-07-02T03:39:01.602Z,10.39
2018-07-02T03:40:01.618Z,10.36
2018-07-02T03:41:02.259Z,10.39
2018-07-02T03:42:01.514Z,10.39
2018-07-02T03:43:01.537Z,10.41
2018-07-02T03:44:02.267Z,10.39
2018-07-02T03:45:01.425Z,10.44
2018-07-02T03:46:01.399Z,10.41
2018-07-02T03:47:01.372Z,10.44
2018-07-02T03:48:01.817Z,10.41
2018-07-02T03:49:01.309Z,10.46
2018-07-02T03:50:01.293Z,10.47
2018-07-02T03:51:01.302Z,10.46
2018-07-02T03:52:01.260Z,10.51
2018-07-02T03:53:01.196Z,10.51
2018-07-02T03:54:01.317Z,10.54
2018-07-02T03:55:01.131Z,10.47
2018-07-02T03:56:01.138Z,10.54
2018-07-02T03:57:01.758Z,10.47
2018-07-02T03:58:01.112Z,10.59
2018-07-02T03:59:01.015Z,10.54
2018-07-02T04:00:00.998Z,10.59
2018-07-02T04:01:00.960Z,10.65
2018-07-02T04:02:00.927Z,10.67
2018-07-02T04:03:00.959Z,10.61
2018-07-02T04:04:01.761Z,10.70
2018-07-02T04:05:00.843Z,10.65
2018-07-02T04:06:00.814Z,10.72
2018-07-02T04:07:00.788Z,10.77
2018-07-02T04:08:00.811Z,10.79
2018-07-02T04:09:00.725Z,10.80
2018-07-02T04:10:00.715Z,10.90
2018-07-02T04:11:00.714Z,10.90
2018-07-02T04:12:00.640Z,10.90
2018-07-02T04:13:00.676Z,10.90
2018-07-02T04:14:01.262Z,10.97
2018-07-02T04:15:00.552Z,10.92
2018-07-02T04:16:00.519Z,10.95
2018-07-02T04:17:00.821Z,11.02
2018-07-02T04:18:00.479Z,10.95
2018-07-02T04:19:00.439Z,11.03
2018-07-02T04:20:00.819Z,11.18
2018-07-02T04:21:00.379Z,11.59
2018-07-02T04:22:00.344Z,12.33
2018-07-02T04:23:00.841Z,12.74
2018-07-02T04:24:00.817Z,12.88
2018-07-02T04:25:00.257Z,12.78
2018-07-02T04:26:00.290Z,12.71
2018-07-02T04:27:00.767Z,12.65
2018-07-02T04:28:00.182Z,12.53
2018-07-02T04:29:00.187Z,12.59
2018-07-02T04:30:00.764Z,12.47
2018-07-02T04:31:00.092Z,12.44
2018-07-02T04:32:00.312Z,12.58
2018-07-02T04:33:00.032Z,12.56
2018-07-02T04:34:00.008Z,12.51
2018-07-02T04:35:00.317Z,12.45
2018-07-02T04:35:59.956Z,12.31
2018-07-02T04:36:59.914Z,12.41
2018-07-02T04:37:59.931Z,12.23
2018-07-02T04:38:59.866Z,12.28
2018-07-02T04:40:00.322Z,12.20
2018-07-02T04:40:59.804Z,12.16
2018-07-02T04:42:00.770Z,12.20
2018-07-02T04:42:59.751Z,12.22
2018-07-02T04:43:59.729Z,12.28
2018-07-02T04:44:59.827Z,12.28
2018-07-02T04:45:59.666Z,12.31
2018-07-02T04:46:59.643Z,12.36
2018-07-02T04:48:00.123Z,12.41
2018-07-02T04:49:00.270Z,12.37
2018-07-02T04:49:59.594Z,12.36
2018-07-02T04:50:59.576Z,12.38
2018-07-02T04:51:59.492Z,12.33
2018-07-02T04:52:59.469Z,12.44
2018-07-02T04:54:00.285Z,12.51
2018-07-02T04:54:59.463Z,12.53
2018-07-02T04:56:00.326Z,12.69
2018-07-02T04:56:59.356Z,12.66
2018-07-02T04:57:59.323Z,12.69
2018-07-02T04:59:00.284Z,12.70
2018-07-02T04:59:59.279Z,12.71
2018-07-02T05:00:59.301Z,12.84
2018-07-02T05:01:59.213Z,12.86
2018-07-02T05:02:59.773Z,13.02
2018-07-02T05:03:59.158Z,13.29
2018-07-02T05:04:59.133Z,13.44
2018-07-02T05:05:59.136Z,13.69
2018-07-02T05:07:00.178Z,13.81
2018-07-02T05:07:59.045Z,13.90
2018-07-02T05:08:59.015Z,13.90
2018-07-02T05:09:59.042Z,13.97
2018-07-02T05:10:58.960Z,13.95
2018-07-02T05:11:58.933Z,13.91
2018-07-02T05:12:58.905Z,14.09
2018-07-02T05:13:59.776Z,14.33
2018-07-02T05:14:58.894Z,14.42
2018-07-02T05:15:58.829Z,14.36
2018-07-02T05:16:58.833Z,14.31
2018-07-02T05:17:58.772Z,14.41
2018-07-02T05:18:58.789Z,14.33
2018-07-02T05:19:59.274Z,14.28
2018-07-02T05:20:58.694Z,14.24
2018-07-02T05:21:59.274Z,14.26
2018-07-02T05:22:58.684Z,14.15
2018-07-02T05:23:59.282Z,14.23
2018-07-02T05:24:58.596Z,14.16
2018-07-02T05:25:58.835Z,14.23
2018-07-02T05:26:58.541Z,14.20
2018-07-02T05:27:58.838Z,14.28
2018-07-02T05:28:58.488Z,14.33
2018-07-02T05:29:58.469Z,14.38
2018-07-02T05:30:58.440Z,14.46
2018-07-02T05:31:58.454Z,14.48
2018-07-02T05:32:59.288Z,14.51
2018-07-02T05:33:58.364Z,14.42
2018-07-02T05:34:58.332Z,14.57
2018-07-02T05:35:59.278Z,14.56
2018-07-02T05:36:58.316Z,14.57
2018-07-02T05:37:58.779Z,14.70
2018-07-02T05:38:58.265Z,14.67
2018-07-02T05:39:58.776Z,14.63
2018-07-02T05:40:58.188Z,14.63
2018-07-02T05:41:58.331Z,14.70
2018-07-02T05:42:58.184Z,14.71
2018-07-02T05:43:58.797Z,14.75
2018-07-02T05:44:58.959Z,14.77
2018-07-02T05:45:58.048Z,14.77
2018-07-02T05:46:58.067Z,14.71
2018-07-02T05:47:58.778Z,14.77
2018-07-02T05:48:57.965Z,14.77
2018-07-02T05:49:58.785Z,14.77
2018-07-02T05:50:57.925Z,14.75
2018-07-02T05:51:57.941Z,14.90
2018-07-02T05:52:57.902Z,14.89
2018-07-02T05:53:58.779Z,14.90
2018-07-02T05:54:57.845Z,14.94
2018-07-02T05:55:58.281Z,14.89
2018-07-02T05:56:57.803Z,14.83
2018-07-02T05:57:58.287Z,14.97
2018-07-02T05:58:57.738Z,15.00
2018-07-02T05:59:58.282Z,15.04
2018-07-02T06:00:57.653Z,15.07
2018-07-02T06:01:58.281Z,15.04
2018-07-02T06:02:57.597Z,15.12
2018-07-02T06:03:57.853Z,15.08
2018-07-02T06:04:57.563Z,15.15
2018-07-02T06:05:58.283Z,15.15
2018-07-02T06:06:57.492Z,15.16
2018-07-02T06:07:58.391Z,15.22
2018-07-02T06:08:57.489Z,15.23
2018-07-02T06:09:57.408Z,15.25
2018-07-02T06:10:58.279Z,15.30
2018-07-02T06:11:57.359Z,15.30
2018-07-02T06:12:57.327Z,15.38
2018-07-02T06:13:57.835Z,15.37
2018-07-02T06:14:57.370Z,15.34
2018-07-02T06:15:57.248Z,15.37
2018-07-02T06:16:57.246Z,15.30
2018-07-02T06:17:57.195Z,15.38
2018-07-02T06:18:57.838Z,15.37
2018-07-02T06:19:57.206Z,15.51
2018-07-02T06:20:57.790Z,15.55
2018-07-02T06:21:57.090Z,15.49
2018-07-02T06:22:57.784Z,15.67
2018-07-02T06:23:57.039Z,15.63
2018-07-02T06:24:58.192Z,15.68
2018-07-02T06:25:56.988Z,15.73
2018-07-02T06:26:56.958Z,15.73
2018-07-02T06:27:57.785Z,15.73
2018-07-02T06:28:56.907Z,15.84
2018-07-02T06:29:57.340Z,15.84
2018-07-02T06:30:56.855Z,15.84
2018-07-02T06:31:57.795Z,15.81
2018-07-02T06:32:56.816Z,15.93
2018-07-02T06:33:57.286Z,15.93
2018-07-02T06:34:56.796Z,15.83
2018-07-02T06:35:57.308Z,15.86
2018-07-02T06:36:56.700Z,15.81
2018-07-02T06:37:57.286Z,15.95
2018-07-02T06:38:56.648Z,16.04
2018-07-02T06:39:56.843Z,16.00
2018-07-02T06:40:56.591Z,16.10
2018-07-02T06:41:57.309Z,16.11
2018-07-02T06:42:56.545Z,16.08
2018-07-02T06:43:56.523Z,16.11
2018-07-02T06:44:56.876Z,16.14
2018-07-02T06:45:56.463Z,16.18
2018-07-02T06:46:56.479Z,16.17
2018-07-02T06:47:57.293Z,16.18
2018-07-02T06:48:56.387Z,16.18
2018-07-02T06:49:57.291Z,16.25
2018-07-02T06:50:56.339Z,16.17
2018-07-02T06:51:56.846Z,16.26
2018-07-02T06:52:56.348Z,16.26
2018-07-02T06:53:56.791Z,16.34
2018-07-02T06:54:56.240Z,16.33
2018-07-02T06:55:56.790Z,16.36
2018-07-02T06:56:56.181Z,16.40
2018-07-02T06:57:56.345Z,16.51
2018-07-02T06:58:56.129Z,16.51
2018-07-02T06:59:56.345Z,16.55
2018-07-02T07:00:56.085Z,16.65
2018-07-02T07:01:56.078Z,16.63
2018-07-02T07:02:56.792Z,16.66
2018-07-02T07:03:56.041Z,16.65
2018-07-02T07:04:56.815Z,16.67
2018-07-02T07:05:55.949Z,16.73
2018-07-02T07:06:55.973Z,16.70
2018-07-02T07:07:56.796Z,16.69
2018-07-02T07:08:55.873Z,16.74
2018-07-02T07:09:56.348Z,16.77
2018-07-02T07:10:55.824Z,16.67
2018-07-02T07:11:56.304Z,16.76
2018-07-02T07:12:55.773Z,16.81
2018-07-02T07:13:56.296Z,16.80
2018-07-02T07:14:55.757Z,16.81
2018-07-02T07:15:56.297Z,16.82
2018-07-02T07:16:55.716Z,16.85
2018-07-02T07:17:56.294Z,16.88
2018-07-02T07:18:55.619Z,16.85
2018-07-02T07:19:56.298Z,16.84
2018-07-02T07:20:55.614Z,16.84
2018-07-02T07:21:56.297Z,16.88
2018-07-02T07:22:55.561Z,16.91
2018-07-02T07:23:56.303Z,16.97
2018-07-02T07:24:55.471Z,17.03
2018-07-02T07:25:56.296Z,16.97
2018-07-02T07:26:55.418Z,17.05
2018-07-02T07:27:55.851Z,17.07
2018-07-02T07:28:55.382Z,17.06
2018-07-02T07:29:56.323Z,17.05
2018-07-02T07:30:55.316Z,17.15
2018-07-02T07:31:55.338Z,17.20
2018-07-02T07:32:55.802Z,17.22
2018-07-02T07:33:55.291Z,17.27
2018-07-02T07:34:55.801Z,17.31
2018-07-02T07:35:55.191Z,17.32
2018-07-02T07:36:55.167Z,17.25
2018-07-02T07:37:55.803Z,17.38
2018-07-02T07:38:55.172Z,17.38
2018-07-02T07:39:55.801Z,17.46
2018-07-02T07:40:55.071Z,17.45
2018-07-02T07:41:55.039Z,17.52
2018-07-02T07:42:55.801Z,17.47
2018-07-02T07:43:55.029Z,17.49
2018-07-02T07:44:55.826Z,17.49
2018-07-02T07:45:54.997Z,17.47
2018-07-02T07:46:55.800Z,17.63
2018-07-02T07:47:54.892Z,17.49
2018-07-02T07:48:55.805Z,17.60
2018-07-02T07:49:54.840Z,17.62
2018-07-02T07:50:55.371Z,17.71
2018-07-02T07:51:54.792Z,17.63
2018-07-02T07:52:54.768Z,17.73
2018-07-02T07:53:55.315Z,17.74
2018-07-02T07:54:54.720Z,17.81
2018-07-02T07:55:54.876Z,17.83
2018-07-02T07:56:54.671Z,17.86
2018-07-02T07:57:55.305Z,17.86
2018-07-02T07:58:54.617Z,17.90
2018-07-02T07:59:54.596Z,17.92
2018-07-02T08:00:54.875Z,17.86
2018-07-02T08:01:54.546Z,17.99
2018-07-02T08:02:54.522Z,17.99
2018-07-02T08:03:55.307Z,18.02
2018-07-02T08:04:54.469Z,18.02
2018-07-02T08:05:54.897Z,18.02
2018-07-02T08:06:54.465Z,18.14
2018-07-02T08:07:54.395Z,18.11
2018-07-02T08:08:55.307Z,18.20
2018-07-02T08:09:54.346Z,18.21
2018-07-02T08:10:54.331Z,18.26
2018-07-02T08:11:54.352Z,18.32
2018-07-02T08:12:54.284Z,18.32
2018-07-02T08:13:54.811Z,18.32
2018-07-02T08:14:54.229Z,18.34
2018-07-02T08:15:54.811Z,18.31
2018-07-02T08:16:54.230Z,18.42
2018-07-02T08:17:54.155Z,18.38
2018-07-02T08:18:54.132Z,18.53
2018-07-02T08:19:54.104Z,18.54
2018-07-02T08:20:54.812Z,18.49
2018-07-02T08:21:54.821Z,18.63
2018-07-02T08:22:54.030Z,18.60
2018-07-02T08:23:54.005Z,18.63
2018-07-02T08:24:53.979Z,18.61
2018-07-02T08:25:54.813Z,18.66
2018-07-02T08:26:53.978Z,18.72
2018-07-02T08:27:53.954Z,18.84
2018-07-02T08:28:53.890Z,18.78
2018-07-02T08:29:53.864Z,18.87
2018-07-02T08:30:53.887Z,18.90
2018-07-02T08:31:53.812Z,18.82
2018-07-02T08:32:53.888Z,18.84
2018-07-02T08:33:53.769Z,18.94
2018-07-02T08:34:54.316Z,19.02
2018-07-02T08:35:53.719Z,19.06
2018-07-02T08:36:53.692Z,19.07
2018-07-02T08:37:53.853Z,19.06
2018-07-02T08:38:53.652Z,19.05
2018-07-02T08:39:53.621Z,19.07
2018-07-02T08:40:54.314Z,19.16
2018-07-02T08:41:53.574Z,19.16
2018-07-02T08:42:53.595Z,19.15
2018-07-02T08:43:54.326Z,19.27
2018-07-02T08:44:53.496Z,19.30
2018-07-02T08:45:53.473Z,19.38
2018-07-02T08:46:54.408Z,19.40
2018-07-02T08:47:53.470Z,19.37
2018-07-02T08:48:53.401Z,19.28
2018-07-02T08:49:53.382Z,19.31
2018-07-02T08:50:53.397Z,19.37
2018-07-02T08:51:53.332Z,19.31
2018-07-02T08:52:53.361Z,19.38
2018-07-02T08:53:53.282Z,19.38
2018-07-02T08:54:53.260Z,19.43
2018-07-02T08:55:53.818Z,19.43
2018-07-02T08:56:53.212Z,19.40
2018-07-02T08:57:53.237Z,19.50
2018-07-02T08:58:53.207Z,19.52
2018-07-02T08:59:53.817Z,19.55
2018-07-02T09:00:53.119Z,19.56
2018-07-02T09:01:53.091Z,19.61
2018-07-02T09:02:53.067Z,19.60
2018-07-02T09:03:53.374Z,19.70
2018-07-02T09:04:53.026Z,19.70
2018-07-02T09:05:53.378Z,19.80
2018-07-02T09:06:52.995Z,19.83
2018-07-02T09:07:53.824Z,19.74
2018-07-02T09:08:52.927Z,19.75
2018-07-02T09:09:52.903Z,19.82
2018-07-02T09:10:52.925Z,19.71
2018-07-02T09:11:53.819Z,19.86
2018-07-02T09:12:52.832Z,19.72
2018-07-02T09:13:52.855Z,19.83
2018-07-02T09:14:53.322Z,19.83
2018-07-02T09:15:52.811Z,19.90
2018-07-02T09:16:52.770Z,19.89
2018-07-02T09:17:52.718Z,19.87
2018-07-02T09:18:52.739Z,19.97
2018-07-02T09:19:52.723Z,20.00
2018-07-02T09:20:52.695Z,19.93
2018-07-02T09:21:52.626Z,20.02
2018-07-02T09:22:52.600Z,20.00
2018-07-02T09:23:52.625Z,20.04
2018-07-02T09:24:52.554Z,20.01
2018-07-02T09:25:52.575Z,19.95
2018-07-02T09:26:53.336Z,20.05
2018-07-02T09:27:52.489Z,20.11
2018-07-02T09:28:53.328Z,20.15
2018-07-02T09:29:52.556Z,20.22
2018-07-02T09:30:52.415Z,20.20
2018-07-02T09:31:52.391Z,20.26
2018-07-02T09:32:52.415Z,20.32
2018-07-02T09:33:52.352Z,20.32
2018-07-02T09:34:52.826Z,20.38
2018-07-02T09:35:52.351Z,20.44
2018-07-02T09:36:52.279Z,20.48
2018-07-02T09:37:52.303Z,20.54
2018-07-02T09:38:52.232Z,20.61
2018-07-02T09:39:52.255Z,20.76
2018-07-02T09:40:52.193Z,20.86
2018-07-02T09:41:52.182Z,20.93
2018-07-02T09:42:52.142Z,21.01
2018-07-02T09:43:52.383Z,20.97
2018-07-02T09:44:52.094Z,20.97
2018-07-02T09:45:52.078Z,20.94
2018-07-02T09:46:52.074Z,21.12
2018-07-02T09:47:52.048Z,21.15
2018-07-02T09:48:52.049Z,21.19
2018-07-02T09:49:52.034Z,21.23
2018-07-02T09:50:51.968Z,21.34
2018-07-02T09:51:51.986Z,21.40
2018-07-02T09:52:52.837Z,21.43
2018-07-02T09:53:51.907Z,21.62
2018-07-02T09:54:51.873Z,21.67
2018-07-02T09:55:51.906Z,21.77
2018-07-02T09:56:51.831Z,21.80
2018-07-02T09:57:52.332Z,21.82
2018-07-02T09:58:51.790Z,21.76
2018-07-02T09:59:51.766Z,21.80
2018-07-02T10:00:51.810Z,21.93
2018-07-02T10:01:51.721Z,21.94
2018-07-02T10:02:51.700Z,21.94
2018-07-02T10:03:51.679Z,22.05
2018-07-02T10:04:51.655Z,21.93
2018-07-02T10:05:51.675Z,22.11
2018-07-02T10:06:51.659Z,22.20
2018-07-02T10:07:51.594Z,22.20
2018-07-02T10:08:51.625Z,22.23
2018-07-02T10:09:51.553Z,22.31
2018-07-02T10:10:51.532Z,22.09
2018-07-02T10:11:51.510Z,21.96
2018-07-02T10:12:52.341Z,21.92
2018-07-02T10:13:51.509Z,22.09
2018-07-02T10:14:51.443Z,21.94
2018-07-02T10:15:51.423Z,21.85
2018-07-02T10:16:51.447Z,21.71
2018-07-02T10:17:51.381Z,21.59
2018-07-02T10:18:51.359Z,21.61
2018-07-02T10:19:51.340Z,21.52
2018-07-02T10:20:51.317Z,21.51
2018-07-02T10:21:51.332Z,21.52
2018-07-02T10:22:51.278Z,21.59
2018-07-02T10:23:51.306Z,21.68
2018-07-02T10:24:51.301Z,21.70
2018-07-02T10:25:51.215Z,21.66
2018-07-02T10:26:51.191Z,21.86
2018-07-02T10:27:51.170Z,22.08
2018-07-02T10:28:51.142Z,22.29
2018-07-02T10:29:51.165Z,22.42
2018-07-02T10:30:51.113Z,22.46
2018-07-02T10:31:51.845Z,22.48
2018-07-02T10:32:51.077Z,22.60
2018-07-02T10:33:51.077Z,22.60
2018-07-02T10:34:51.041Z,22.66
2018-07-02T10:35:51.045Z,22.69
2018-07-02T10:36:50.980Z,22.66
2018-07-02T10:37:51.849Z,22.79
2018-07-02T10:38:50.938Z,22.75
2018-07-02T10:39:50.975Z,22.82
2018-07-02T10:40:50.913Z,22.71
2018-07-02T10:41:50.876Z,22.94
2018-07-02T10:42:50.855Z,23.15
2018-07-02T10:43:50.829Z,23.18
2018-07-02T10:44:50.861Z,23.24
2018-07-02T10:45:50.787Z,23.18
2018-07-02T10:46:50.776Z,23.07
2018-07-02T10:47:50.749Z,23.06
2018-07-02T10:48:50.764Z,22.94
2018-07-02T10:49:50.751Z,22.91
2018-07-02T10:50:50.689Z,22.91
2018-07-02T10:51:50.668Z,23.03
2018-07-02T10:52:50.689Z,23.00
2018-07-02T10:53:50.627Z,23.07
2018-07-02T10:54:50.606Z,22.94
2018-07-02T10:55:50.589Z,22.84
2018-07-02T10:56:50.580Z,22.75
2018-07-02T10:57:50.594Z,22.76
2018-07-02T10:58:50.529Z,22.78
2018-07-02T10:59:50.521Z,22.84
2018-07-02T11:00:50.482Z,22.81
2018-07-02T11:01:50.474Z,22.82
2018-07-02T11:02:50.485Z,22.69
2018-07-02T11:03:50.486Z,22.66
2018-07-02T11:04:50.402Z,22.76
2018-07-02T11:05:50.381Z,22.75
2018-07-02T11:06:51.361Z,22.92
2018-07-02T11:07:50.360Z,22.94
2018-07-02T11:08:50.413Z,23.19
2018-07-02T11:09:50.302Z,23.26
2018-07-02T11:10:50.280Z,23.45
2018-07-02T11:11:50.302Z,23.55
2018-07-02T11:12:50.251Z,23.37
2018-07-02T11:13:50.270Z,23.32
2018-07-02T11:14:50.254Z,23.22
2018-07-02T11:15:50.177Z,23.21
2018-07-02T11:16:50.167Z,22.96
2018-07-02T11:17:50.137Z,22.81
2018-07-02T11:18:50.430Z,22.85
2018-07-02T11:19:50.094Z,22.78
2018-07-02T11:20:50.076Z,22.96
2018-07-02T11:21:50.874Z,22.94
2018-07-02T11:22:50.031Z,23.01
2018-07-02T11:23:50.132Z,23.03
2018-07-02T11:24:49.989Z,22.92
2018-07-02T11:25:49.978Z,23.06
2018-07-02T11:26:50.856Z,23.18
2018-07-02T11:27:49.946Z,23.18
2018-07-02T11:28:49.996Z,23.19
2018-07-02T11:29:49.892Z,23.24
2018-07-02T11:30:50.417Z,22.99
2018-07-02T11:31:49.846Z,23.21
2018-07-02T11:32:49.830Z,23.22
2018-07-02T11:33:49.848Z,23.26
2018-07-02T11:34:49.786Z,23.19
2018-07-02T11:35:49.907Z,23.40
2018-07-02T11:36:49.745Z,23.25
2018-07-02T11:37:49.774Z,23.15
2018-07-02T11:38:49.703Z,23.14
2018-07-02T11:39:49.682Z,23.18
2018-07-02T11:40:50.362Z,23.25
2018-07-02T11:41:49.694Z,23.24
2018-07-02T11:42:49.622Z,23.26
2018-07-02T11:43:49.598Z,23.45
2018-07-02T11:44:49.578Z,23.64
2018-07-02T11:45:50.376Z,23.74
2018-07-02T11:46:49.590Z,23.84
2018-07-02T11:47:49.518Z,23.77
2018-07-02T11:48:49.554Z,23.72
2018-07-02T11:49:49.478Z,23.79
2018-07-02T11:50:49.500Z,23.77
2018-07-02T11:51:49.447Z,23.56
2018-07-02T11:52:49.418Z,23.41
2018-07-02T11:53:49.395Z,23.47
2018-07-02T11:54:49.423Z,23.24
2018-07-02T11:55:49.419Z,23.38
2018-07-02T11:56:49.340Z,23.24
2018-07-02T11:57:49.324Z,23.25
2018-07-02T11:58:49.310Z,23.26
2018-07-02T11:59:49.327Z,23.44
2018-07-02T12:00:49.870Z,23.64
2018-07-02T12:01:49.266Z,23.42
2018-07-02T12:02:49.263Z,23.32
2018-07-02T12:03:49.237Z,23.35
2018-07-02T12:04:49.180Z,23.44
2018-07-02T12:05:49.159Z,23.37
2018-07-02T12:06:49.191Z,23.67
2018-07-02T12:07:49.128Z,23.75
2018-07-02T12:08:49.091Z,23.74
2018-07-02T12:09:49.088Z,23.85
2018-07-02T12:10:49.103Z,23.94
2018-07-02T12:11:49.039Z,24.03
2018-07-02T12:12:49.033Z,24.12
2018-07-02T12:13:48.998Z,24.09
2018-07-02T12:14:48.972Z,24.00
2018-07-02T12:15:49.000Z,23.94
2018-07-02T12:16:48.933Z,24.17
2018-07-02T12:17:48.910Z,24.26
2018-07-02T12:18:48.899Z,24.37
2018-07-02T12:19:48.935Z,24.34
2018-07-02T12:20:48.857Z,24.36
2018-07-02T12:21:48.833Z,24.32
2018-07-02T12:22:48.857Z,24.22
2018-07-02T12:23:48.791Z,24.19
2018-07-02T12:24:48.831Z,24.27
2018-07-02T12:25:48.752Z,24.27
2018-07-02T12:26:48.735Z,24.27
2018-07-02T12:27:48.720Z,24.32
2018-07-02T12:28:48.746Z,23.89
2018-07-02T12:29:48.683Z,23.56
2018-07-02T12:30:48.658Z,23.64
2018-07-02T12:31:48.638Z,23.44
2018-07-02T12:32:48.617Z,23.26
2018-07-02T12:33:48.650Z,23.22
2018-07-02T12:34:48.585Z,23.00
2018-07-02T12:35:48.563Z,22.99
2018-07-02T12:36:48.536Z,22.92
2018-07-02T12:37:48.515Z,22.96
2018-07-02T12:38:48.537Z,22.94
2018-07-02T12:39:48.477Z,22.75
2018-07-02T12:40:48.452Z,22.91
2018-07-02T12:41:48.434Z,23.00
2018-07-02T12:42:49.383Z,23.01
2018-07-02T12:43:48.448Z,23.12
2018-07-02T12:44:48.379Z,23.19
2018-07-02T12:45:48.360Z,23.25
2018-07-02T12:46:48.346Z,23.28
2018-07-02T12:47:48.322Z,23.28
2018-07-02T12:48:48.325Z,23.50
2018-07-02T12:49:48.267Z,23.35
2018-07-02T12:50:48.343Z,23.40
2018-07-02T12:51:48.232Z,23.34
2018-07-02T12:52:48.211Z,23.32
2018-07-02T12:53:48.212Z,23.34